Time;durP1;ratioP1;P1;durP2;ratioP2;P2;SDS_P1;SDS_P2;PMS_P1;PMS_P2;Temp;Humidity;BMP_temperature;BMP_pressure;BME280_temperature;BME280_humidity;BME280_pressure;Samples;Min_cycle;Max_cycle;Signal;HPM_P1;HPM_P2
2022/11/25 00:00:12;;;;;;;11.48;2.28;;;;;;;7.21;100.00;100383.44;687682;28;932;-68
2022/11/25 00:00:32;;;;;;;11.20;2.57;;;;;;;7.29;100.00;100381.75;686911;28;927;-68
2022/11/25 00:00:52;;;;;;;11.52;2.50;;;;;;;7.25;100.00;100384.34;687723;28;4557;-68
2022/11/25 00:01:33;;;;;;;9.73;2.40;;;;;;;7.27;100.00;100385.19;687793;28;1026;-68
2022/11/25 00:01:54;;;;;;;10.52;2.28;;;;;;;7.25;100.00;100379.97;688145;28;817;-67
2022/11/25 00:02:14;;;;;;;9.37;2.20;;;;;;;7.29;100.00;100383.47;687768;28;1240;-68
2022/11/25 00:02:35;;;;;;;9.10;2.70;;;;;;;7.36;100.00;100380.03;687493;28;952;-69
2022/11/25 00:02:55;;;;;;;8.67;2.53;;;;;;;7.33;100.00;100382.63;688221;28;911;-69
2022/11/25 00:03:15;;;;;;;9.53;2.63;;;;;;;7.28;100.00;100380.03;687756;28;1274;-68
2022/11/25 00:03:36;;;;;;;10.13;2.35;;;;;;;7.29;100.00;100381.75;688059;28;1173;-69
2022/11/25 00:03:58;;;;;;;11.60;2.63;;;;;;;7.28;100.00;100379.13;687604;28;4571;-68
2022/11/25 00:04:18;;;;;;;9.35;2.42;;;;;;;7.33;100.00;100382.63;688005;28;1098;-68
2022/11/25 00:04:38;;;;;;;7.63;2.37;;;;;;;7.35;100.00;100380.03;687755;28;987;-69
2022/11/25 00:04:59;;;;;;;9.60;2.73;;;;;;;7.42;100.00;100380.06;687949;28;1485;-68
2022/11/25 00:05:19;;;;;;;9.27;2.57;;;;;;;7.41;100.00;100380.94;687714;28;928;-68
2022/11/25 00:05:39;;;;;;;8.80;2.47;;;;;;;7.37;100.00;100373.13;687896;28;912;-67
2022/11/25 00:06:17;;;;;;;10.90;2.40;;;;;;;7.24;100.00;100378.28;684067;28;2209;-68
2022/11/25 00:06:38;;;;;;;7.75;2.28;;;;;;;7.21;100.00;100377.38;686919;28;1248;-69
2022/11/25 00:06:58;;;;;;;8.68;2.60;;;;;;;7.19;100.00;100379.13;687143;28;4286;-69
2022/11/25 00:07:18;;;;;;;10.33;2.70;;;;;;;7.12;100.00;100376.47;687832;28;1097;-67
2022/11/25 00:07:39;;;;;;;11.13;2.70;;;;;;;7.09;100.00;100373.88;688133;28;892;-68
2022/11/25 00:07:59;;;;;;;11.07;2.88;;;;;;;7.10;100.00;100380.81;687976;28;1173;-68
2022/11/25 00:08:19;;;;;;;8.17;2.30;;;;;;;7.11;100.00;100384.25;687298;28;1473;-69
2022/11/25 00:08:42;;;;;;;9.13;2.30;;;;;;;7.20;100.00;100386.91;687522;28;877;-68
2022/11/25 00:09:06;;;;;;;10.32;2.72;;;;;;;7.30;100.00;100383.47;687759;28;1521;-69
2022/11/25 00:09:26;;;;;;;9.93;3.40;;;;;;;7.39;100.00;100374.84;687521;28;1330;-68
2022/11/25 00:09:46;;;;;;;9.53;2.70;;;;;;;7.35;100.00;100375.69;687120;28;4365;-67
2022/11/25 00:10:07;;;;;;;10.07;2.47;;;;;;;7.29;100.00;100383.47;686695;28;1003;-67
2022/11/25 00:10:27;;;;;;;11.70;2.90;;;;;;;7.30;100.00;100372.22;682905;28;1376;-69
2022/11/25 00:10:48;;;;;;;9.87;2.63;;;;;;;7.28;100.00;100373.94;684761;28;957;-68
2022/11/25 00:11:09;;;;;;;10.80;2.80;;;;;;;7.24;100.00;100379.97;685209;28;976;-70
2022/11/25 00:11:30;;;;;;;10.20;2.65;;;;;;;7.22;100.00;100382.59;685176;28;1032;-68
2022/11/25 00:11:50;;;;;;;9.83;2.67;;;;;;;7.19;100.00;100376.53;684766;28;1296;-69
2022/11/25 00:12:10;;;;;;;10.55;2.70;;;;;;;7.18;100.00;100377.38;684582;28;1576;-68
2022/11/25 00:12:31;;;;;;;8.43;2.40;;;;;;;7.16;100.00;100380.81;687929;28;849;-68
2022/11/25 00:12:51;;;;;;;7.35;2.13;;;;;;;7.15;100.00;100367.81;684238;28;4569;-68
2022/11/25 00:13:11;;;;;;;8.53;2.40;;;;;;;7.09;100.00;100373.88;683355;28;1018;-69
2022/11/25 00:13:32;;;;;;;7.32;2.28;;;;;;;7.06;100.00;100373.84;684854;28;1361;-69
2022/11/25 00:13:54;;;;;;;7.97;2.50;;;;;;;7.05;100.00;100376.41;685167;28;900;-68
2022/11/25 00:14:14;;;;;;;9.68;2.63;;;;;;;7.02;100.00;100376.41;687260;28;1208;-69
2022/11/25 00:14:35;;;;;;;7.80;2.60;;;;;;;7.02;100.00;100381.59;687984;28;1153;-68
2022/11/25 00:14:55;;;;;;;9.90;2.53;;;;;;;7.03;100.00;100383.34;687307;28;1271;-69
2022/11/25 00:15:16;;;;;;;8.68;2.50;;;;;;;7.01;100.00;100380.75;687731;28;1335;-69
2022/11/25 00:15:36;;;;;;;7.87;2.30;;;;;;;6.99;100.00;100382.47;688302;28;880;-69
2022/11/25 00:16:03;;;;;;;9.20;2.70;;;;;;;6.96;100.00;100377.25;687007;28;4531;-69
2022/11/25 00:16:27;;;;;;;8.73;2.42;;;;;;;6.89;100.00;100378.09;687314;28;1017;-68
2022/11/25 00:16:48;;;;;;;11.13;2.83;;;;;;;7.04;100.00;100380.75;687438;28;1286;-68
2022/11/25 00:17:08;;;;;;;9.65;2.70;;;;;;;7.04;100.00;100377.31;688708;28;1091;-68
2022/11/25 00:17:28;;;;;;;9.30;2.60;;;;;;;7.02;100.00;100379.91;688022;28;941;-69
2022/11/25 00:17:49;;;;;;;8.80;2.80;;;;;;;7.02;100.00;100379.00;689614;28;924;-68
2022/11/25 00:18:09;;;;;;;7.82;2.40;;;;;;;7.06;100.00;100379.06;689376;28;1054;-69
2022/11/25 00:18:30;;;;;;;9.47;2.70;;;;;;;7.11;100.00;100369.53;689344;28;1064;-68
2022/11/25 00:18:53;;;;;;;10.85;2.80;;;;;;;7.10;100.00;100373.00;687911;28;4398;-69
2022/11/25 00:19:13;;;;;;;9.38;2.42;;;;;;;7.08;100.00;100366.06;686820;28;909;-68
2022/11/25 00:19:34;;;;;;;8.20;2.28;;;;;;;7.20;100.00;100375.63;686639;28;2116;-68
2022/11/25 00:19:55;;;;;;;9.23;2.10;;;;;;;7.29;100.00;100370.47;682633;28;2296;-66
2022/11/25 00:20:15;;;;;;;10.77;2.63;;;;;;;7.27;100.00;100372.19;687014;28;1170;-67
2022/11/25 00:20:36;;;;;;;9.33;2.57;;;;;;;7.23;100.00;100365.28;687955;28;1169;-67
2022/11/25 00:20:57;;;;;;;10.33;2.93;;;;;;;7.18;100.00;100366.97;689143;28;5157;-68
2022/11/25 00:21:19;;;;;;;9.73;2.50;;;;;;;7.13;100.00;100366.94;687052;28;1128;-67
2022/11/25 00:21:40;;;;;;;9.95;2.35;;;;;;;7.13;100.00;100370.41;687940;28;1339;-66
2022/11/25 00:22:00;;;;;;;9.37;2.20;;;;;;;7.09;100.00;100362.56;687405;28;4483;-68
2022/11/25 00:22:20;;;;;;;7.60;2.30;;;;;;;7.12;100.00;100360.88;688999;28;947;-69
2022/11/25 00:22:41;;;;;;;8.10;2.47;;;;;;;7.10;100.00;100364.31;689578;28;900;-68
2022/11/25 00:23:01;;;;;;;8.88;2.50;;;;;;;7.13;100.00;100367.81;687873;28;904;-67
2022/11/25 00:23:21;;;;;;;10.07;2.70;;;;;;;7.21;100.00;100367.84;687178;28;972;-69
2022/11/25 00:23:42;;;;;;;11.03;2.50;;;;;;;7.22;100.00;100366.13;687822;28;904;-68
2022/11/25 00:24:05;;;;;;;9.55;2.50;;;;;;;7.18;100.00;100357.44;687165;28;766;-68
2022/11/25 00:24:26;;;;;;;7.85;2.70;;;;;;;7.14;100.00;100360.88;687754;28;1178;-68
2022/11/25 00:24:46;;;;;;;9.88;2.75;;;;;;;7.14;100.00;100366.06;687505;28;4540;-68
2022/11/25 00:25:07;;;;;;;10.90;2.57;;;;;;;7.11;100.00;100366.94;687806;28;1453;-68
2022/11/25 00:25:27;;;;;;;10.50;2.58;;;;;;;7.08;100.00;100364.31;687553;28;881;-68
2022/11/25 00:25:47;;;;;;;8.03;2.30;;;;;;;7.05;100.00;100364.31;687620;28;1441;-67
2022/11/25 00:26:13;;;;;;;7.97;2.53;;;;;;;6.97;100.00;100366.00;687662;28;1074;-68
2022/11/25 00:26:35;;;;;;;9.88;2.67;;;;;;;6.95;100.00;100367.72;686958;28;762;-66
2022/11/25 00:26:57;;;;;;;7.95;2.38;;;;;;;6.98;100.00;100365.16;686662;28;1148;-68
2022/11/25 00:27:18;;;;;;;8.60;2.50;;;;;;;7.02;100.00;100369.50;687185;28;944;-68
2022/11/25 00:27:38;;;;;;;9.03;2.90;;;;;;;7.11;100.00;100366.06;687219;28;1271;-68
2022/11/25 00:27:58;;;;;;;8.57;2.70;;;;;;;7.11;100.00;100361.72;687038;28;4351;-69
2022/11/25 00:28:19;;;;;;;8.17;2.50;;;;;;;7.16;100.00;100369.56;687355;28;1052;-69
2022/11/25 00:28:41;;;;;;;7.73;2.40;;;;;;;7.24;100.00;100362.66;686927;28;1195;-69
2022/11/25 00:29:04;;;;;;;8.68;2.50;;;;;;;7.23;100.00;100360.06;686100;28;1374;-68
2022/11/25 00:29:25;;;;;;;10.40;2.50;;;;;;;7.24;100.00;100366.97;687567;28;1190;-68
2022/11/25 00:29:45;;;;;;;9.35;2.35;;;;;;;7.29;100.00;100360.94;688786;28;951;-67
2022/11/25 00:30:07;;;;;;;9.90;2.50;;;;;;;7.25;100.00;100360.94;688608;28;927;-67
2022/11/25 00:30:28;;;;;;;8.70;2.30;;;;;;;7.29;100.00;100360.94;688087;28;1003;-68
2022/11/25 00:30:48;;;;;;;10.90;2.40;;;;;;;7.32;100.00;100360.09;685211;28;4327;-68
2022/11/25 00:31:13;;;;;;;9.90;2.30;;;;;;;7.30;100.00;100352.28;682784;28;1125;-68
2022/11/25 00:31:36;;;;;;;8.35;2.25;;;;;;;7.32;100.00;100360.09;684407;28;1015;-68
2022/11/25 00:31:56;;;;;;;9.18;2.67;;;;;;;7.36;100.00;100367.03;682976;28;1256;-67
2022/11/25 00:32:17;;;;;;;9.60;2.67;;;;;;;7.32;100.00;100355.78;684846;28;1179;-68
2022/11/25 00:32:37;;;;;;;8.02;2.50;;;;;;;7.28;100.00;100359.22;682267;28;1239;-68
2022/11/25 00:32:57;;;;;;;10.80;2.60;;;;;;;7.27;100.00;100360.06;679541;29;968;-67
2022/11/25 00:33:19;;;;;;;8.55;2.50;;;;;;;7.29;100.00;100354.88;679675;29;984;-68
2022/11/25 00:33:43;;;;;;;8.50;2.70;;;;;;;7.30;100.00;100351.44;679543;28;1127;-68
2022/11/25 00:34:04;;;;;;;8.02;2.40;;;;;;;7.29;100.00;100355.72;681736;28;4440;-68
2022/11/25 00:34:24;;;;;;;9.95;2.33;;;;;;;7.29;100.00;100349.69;682809;28;1133;-68
2022/11/25 00:34:45;;;;;;;10.60;2.63;;;;;;;7.22;100.00;100353.13;684969;28;821;-68
2022/11/25 00:35:05;;;;;;;10.38;2.60;;;;;;;7.17;100.00;100350.47;685202;28;786;-68
2022/11/25 00:35:26;;;;;;;8.87;2.60;;;;;;;7.15;100.00;100358.28;684609;28;1280;-68
2022/11/25 00:35:46;;;;;;;9.43;2.60;;;;;;;7.13;100.00;100353.94;684480;28;1259;-68
2022/11/25 00:36:14;;;;;;;9.33;2.50;;;;;;;7.17;100.00;100350.47;683953;28;4197;-66
2022/11/25 00:36:36;;;;;;;8.85;2.50;;;;;;;7.14;100.00;100340.97;681509;28;2185;-69
2022/11/25 00:36:56;;;;;;;6.68;2.40;;;;;;;7.09;100.00;100354.78;681385;28;4567;-68
2022/11/25 00:37:17;;;;;;;8.40;2.47;;;;;;;7.12;100.00;100352.22;678790;29;1237;-68
2022/11/25 00:37:37;;;;;;;9.80;2.40;;;;;;;7.09;100.00;100353.06;680104;29;940;-68
2022/11/25 00:37:58;;;;;;;11.35;3.08;;;;;;;7.08;100.00;100351.31;679817;29;1065;-67
2022/11/25 00:38:18;;;;;;;9.50;2.53;;;;;;;7.06;100.00;100347.88;680431;28;934;-69
2022/11/25 00:38:39;;;;;;;11.07;2.50;;;;;;;7.13;100.00;100340.94;681557;29;1059;-68
2022/11/25 00:39:02;;;;;;;9.60;2.57;;;;;;;7.16;100.00;100343.56;680124;29;1472;-68
2022/11/25 00:39:24;;;;;;;10.48;2.58;;;;;;;7.11;100.00;100335.72;684170;28;1354;-68
2022/11/25 00:39:44;;;;;;;9.23;2.50;;;;;;;7.09;100.00;100333.97;685597;28;1972;-67
2022/11/25 00:40:06;;;;;;;7.30;2.20;;;;;;;7.19;100.00;100342.72;689588;28;4453;-67
2022/11/25 00:40:26;;;;;;;8.88;2.42;;;;;;;7.29;100.00;100341.88;688788;28;1211;-67
2022/11/25 00:44:34;;;;;;;9.13;2.40;;;;;;;7.35;100.00;100338.44;689083;28;1148;-68
2022/11/25 00:44:50;;;;;;;10.25;2.70;;;;;;;7.12;100.00;100339.22;689480;28;1643;-68
2022/11/25 00:45:11;;;;;;;8.63;2.57;;;;;;;7.09;100.00;100336.59;690187;28;1067;-67
2022/11/25 00:45:31;;;;;;;10.77;2.43;;;;;;;7.10;100.00;100339.22;687686;28;1273;-68
2022/11/25 00:45:51;;;;;;;11.40;2.53;;;;;;;7.08;100.00;100346.13;687158;28;4372;-67
2022/11/25 00:46:12;;;;;;;9.73;2.63;;;;;;;7.09;100.00;100347.88;687109;28;1117;-67
2022/11/25 00:46:32;;;;;;;10.52;2.67;;;;;;;7.10;100.00;100344.41;685641;28;898;-67
2022/11/25 00:46:52;;;;;;;8.73;2.47;;;;;;;7.18;100.00;100347.03;684698;28;862;-67
2022/11/25 00:47:18;;;;;;;8.77;2.40;;;;;;;7.12;100.00;100342.69;684628;28;948;-66
2022/11/25 00:47:38;;;;;;;10.52;3.00;;;;;;;7.17;100.00;100340.09;687934;28;963;-67
2022/11/25 00:47:58;;;;;;;10.20;2.53;;;;;;;7.14;100.00;100335.78;687740;28;789;-67
2022/11/25 00:48:20;;;;;;;9.63;2.40;;;;;;;7.12;100.00;100340.06;686873;28;921;-68
2022/11/25 00:48:40;;;;;;;9.73;2.37;;;;;;;7.09;100.00;100342.66;687649;28;865;-68
2022/11/25 00:49:01;;;;;;;9.90;2.80;;;;;;;7.24;100.00;100348.78;687030;28;4571;-67
2022/11/25 00:49:21;;;;;;;7.87;2.63;;;;;;;7.28;100.00;100334.94;687474;28;914;-68
2022/11/25 00:49:47;;;;;;;8.73;2.53;;;;;;;7.26;100.00;100339.28;687873;28;844;-67
2022/11/25 00:50:07;;;;;;;10.50;2.60;;;;;;;7.21;100.00;100338.38;687494;28;979;-68
2022/11/25 00:50:28;;;;;;;8.00;2.30;;;;;;;7.15;100.00;100339.22;686636;28;921;-68
2022/11/25 00:50:48;;;;;;;9.17;2.60;;;;;;;7.11;100.00;100340.94;687490;28;1007;-67
2022/11/25 00:51:08;;;;;;;9.52;2.50;;;;;;;7.07;100.00;100341.78;687549;28;1207;-68
2022/11/25 00:51:29;;;;;;;7.30;2.30;;;;;;;7.06;100.00;100337.47;685029;28;868;-67
2022/11/25 00:51:49;;;;;;;8.47;3.10;;;;;;;7.13;100.00;100338.34;684628;28;4484;-67
2022/11/25 00:52:14;;;;;;;8.02;2.90;;;;;;;7.24;100.00;100338.38;684562;28;905;-68
2022/11/25 00:52:35;;;;;;;8.95;2.60;;;;;;;7.24;100.00;100340.97;684924;28;2191;-68
2022/11/25 00:52:56;;;;;;;7.50;2.40;;;;;;;7.19;100.00;100332.31;687668;28;1251;-68
2022/11/25 00:53:16;;;;;;;8.73;2.47;;;;;;;7.20;100.00;100337.53;685699;28;1180;-68
2022/11/25 00:53:36;;;;;;;11.40;2.80;;;;;;;7.21;100.00;100343.56;686080;28;923;-67
2022/11/25 00:53:57;;;;;;;11.13;3.37;;;;;;;7.20;100.00;100328.84;686054;28;884;-67
2022/11/25 00:54:17;;;;;;;8.93;2.80;;;;;;;7.20;100.00;100339.22;686863;28;1190;-67
2022/11/25 00:54:38;;;;;;;9.27;2.47;;;;;;;7.26;100.00;100334.06;686203;28;1369;-67
2022/11/25 00:54:58;;;;;;;8.90;2.50;;;;;;;7.26;100.00;100334.94;686068;28;4342;-67
2022/11/25 00:55:19;;;;;;;7.45;2.38;;;;;;;7.23;100.00;100332.31;687392;28;1019;-68
2022/11/25 00:56:38;;;;;;;8.15;2.70;;;;;;;7.27;100.00;100336.69;680541;28;1583;-66
2022/11/25 00:56:59;;;;;;;7.65;2.40;;;;;;;7.23;100.00;100331.47;680740;29;1396;-67
2022/11/25 00:57:21;;;;;;;7.53;2.40;;;;;;;7.17;100.00;100340.09;683828;28;1021;-67
2022/11/25 00:57:41;;;;;;;8.65;2.60;;;;;;;7.15;100.00;100337.47;683463;28;1173;-67
2022/11/25 00:58:02;;;;;;;9.53;2.40;;;;;;;7.20;100.00;100332.31;682886;28;4435;-69
2022/11/25 00:58:22;;;;;;;8.57;2.50;;;;;;;7.23;100.00;100332.31;683140;28;1220;-67
2022/11/25 00:58:43;;;;;;;7.97;2.33;;;;;;;7.18;100.00;100335.78;682213;28;1138;-68
2022/11/25 00:59:04;;;;;;;9.70;3.00;;;;;;;7.16;100.00;100328.81;682785;28;1246;-67
2022/11/25 00:59:25;;;;;;;9.70;3.10;;;;;;;7.22;100.00;100329.72;678059;29;1380;-66
2022/11/25 00:59:45;;;;;;;12.40;2.55;;;;;;;7.22;100.00;100329.72;676674;29;1909;-67
2022/11/25 01:00:06;;;;;;;11.37;2.87;;;;;;;7.20;100.00;100331.44;682102;29;1320;-67
2022/11/25 01:00:27;;;;;;;8.55;2.72;;;;;;;7.25;100.00;100330.59;682240;28;1230;-68
2022/11/25 01:00:47;;;;;;;8.03;2.47;;;;;;;7.19;100.00;100330.56;683878;28;4362;-66
2022/11/25 01:01:08;;;;;;;8.87;2.60;;;;;;;7.15;100.00;100327.09;681442;29;1158;-68
2022/11/25 01:01:28;;;;;;;9.68;2.83;;;;;;;7.13;100.00;100327.94;679083;29;1358;-68
2022/11/25 01:01:49;;;;;;;8.02;2.80;;;;;;;7.14;100.00;100330.56;681878;29;1195;-67
2022/11/25 01:02:11;;;;;;;11.95;2.88;;;;;;;7.10;100.00;100328.81;679638;29;1202;-68
2022/11/25 01:02:31;;;;;;;12.15;2.88;;;;;;;7.06;100.00;100327.06;682495;28;1111;-68
2022/11/25 01:02:52;;;;;;;7.77;2.53;;;;;;;7.06;100.00;100328.78;684196;28;955;-68
2022/11/25 01:03:12;;;;;;;8.53;3.63;;;;;;;7.15;100.00;100334.88;687385;28;1242;-68
2022/11/25 01:03:33;;;;;;;7.43;2.80;;;;;;;7.21;100.00;100335.78;684797;28;1329;-69
2022/11/25 01:03:54;;;;;;;8.98;2.80;;;;;;;7.25;100.00;100324.53;681824;28;4319;-67
2022/11/25 01:04:15;;;;;;;8.68;2.75;;;;;;;7.24;100.00;100326.28;679768;29;1552;-68
2022/11/25 01:04:35;;;;;;;9.63;2.67;;;;;;;7.26;100.00;100334.94;682167;28;1176;-67
2022/11/25 01:04:55;;;;;;;9.87;2.73;;;;;;;7.30;100.00;100328.88;684614;28;1216;-68
2022/11/25 01:05:16;;;;;;;10.67;3.40;;;;;;;7.27;100.00;100336.69;684362;28;1935;-67
2022/11/25 01:05:36;;;;;;;9.07;2.80;;;;;;;7.27;100.00;100325.38;687368;28;1071;-68
2022/11/25 01:06:00;;;;;;;8.77;2.50;;;;;;;7.22;100.00;100319.31;687176;28;1181;-67
2022/11/25 01:06:21;;;;;;;10.43;2.55;;;;;;;7.24;100.00;100321.06;686601;28;1115;-67
2022/11/25 01:06:42;;;;;;;10.33;2.73;;;;;;;7.24;100.00;100325.38;686441;28;821;-67
2022/11/25 01:07:02;;;;;;;9.70;2.42;;;;;;;7.19;100.00;100322.78;686526;28;4475;-67
2022/11/25 01:07:23;;;;;;;8.48;2.78;;;;;;;7.16;100.00;100326.22;687288;28;1119;-68
2022/11/25 01:07:43;;;;;;;10.13;2.50;;;;;;;7.14;100.00;100324.47;687840;28;802;-67
2022/11/25 01:08:03;;;;;;;8.83;2.57;;;;;;;7.15;100.00;100327.09;687499;28;908;-68
2022/11/25 01:08:24;;;;;;;10.90;2.67;;;;;;;7.15;100.00;100329.69;687547;28;1176;-67
2022/11/25 01:08:44;;;;;;;10.73;2.50;;;;;;;7.24;100.00;100325.38;687925;28;836;-68
2022/11/25 01:09:06;;;;;;;8.35;2.28;;;;;;;7.30;100.00;100325.41;688881;28;1174;-68
2022/11/25 01:09:27;;;;;;;8.55;2.38;;;;;;;7.25;100.00;100327.13;687402;28;1216;-68
2022/11/25 01:09:48;;;;;;;10.55;2.80;;;;;;;7.22;100.00;100332.31;684211;28;4762;-67
2022/11/25 01:10:08;;;;;;;10.90;2.95;;;;;;;7.15;100.00;100329.69;684790;28;992;-68
2022/11/25 01:10:29;;;;;;;7.93;2.60;;;;;;;7.16;100.00;100320.16;682665;28;1361;-67
2022/11/25 01:10:57;;;;;;;10.05;2.70;;;;;;;7.25;100.00;100332.31;682285;29;901;-68
2022/11/25 01:11:20;;;;;;;9.68;2.78;;;;;;;7.19;100.00;100327.13;680265;29;1047;-67
2022/11/25 01:11:40;;;;;;;9.43;2.85;;;;;;;7.14;100.00;100334.88;683214;28;930;-68
2022/11/25 01:12:03;;;;;;;8.45;2.63;;;;;;;7.18;100.00;100335.78;684592;28;895;-68
2022/11/25 01:12:24;;;;;;;8.18;2.70;;;;;;;7.11;100.00;100340.94;686791;28;1032;-68
2022/11/25 01:12:46;;;;;;;9.07;2.75;;;;;;;7.08;100.00;100335.72;686853;28;801;-69
2022/11/25 01:13:09;;;;;;;12.45;3.03;;;;;;;7.03;100.00;100336.56;685354;28;5083;-68
2022/11/25 01:13:30;;;;;;;10.87;2.90;;;;;;;6.99;100.00;100330.47;686639;28;960;-67
2022/11/25 01:13:53;;;;;;;8.77;2.60;;;;;;;6.95;100.00;100328.72;687494;28;1079;-69
2022/11/25 01:14:15;;;;;;;8.85;2.55;;;;;;;7.01;100.00;100339.16;687260;28;921;-68
2022/11/25 01:14:35;;;;;;;8.83;2.50;;;;;;;7.00;100.00;100332.22;685229;28;1615;-67
2022/11/25 01:14:55;;;;;;;8.40;2.55;;;;;;;7.05;100.00;100342.63;685689;28;968;-68
2022/11/25 01:15:16;;;;;;;10.30;3.10;;;;;;;7.08;100.00;100335.72;687018;28;1360;-67
2022/11/25 01:15:36;;;;;;;11.40;3.22;;;;;;;7.08;100.00;100337.47;684769;28;1236;-68
2022/11/25 01:16:00;;;;;;;9.50;2.80;;;;;;;7.06;100.00;100340.06;684343;28;4893;-66
2022/11/25 01:16:21;;;;;;;8.45;2.45;;;;;;;7.08;100.00;100330.53;684439;28;1092;-69
2022/11/25 01:16:42;;;;;;;10.85;2.70;;;;;;;7.16;100.00;100334.03;681707;28;1481;-69
2022/11/25 01:17:02;;;;;;;10.93;2.77;;;;;;;7.21;100.00;100327.97;682225;29;991;-68
2022/11/25 01:17:23;;;;;;;10.40;2.50;;;;;;;7.28;100.00;100330.63;681942;28;885;-68
2022/11/25 01:17:43;;;;;;;10.03;3.03;;;;;;;7.28;100.00;100333.22;682317;28;1448;-67
2022/11/25 01:18:06;;;;;;;10.45;3.25;;;;;;;7.25;100.00;100332.31;684969;28;1378;-66
2022/11/25 01:18:28;;;;;;;9.73;2.60;;;;;;;7.32;100.00;100328.88;685632;28;1116;-67
2022/11/25 01:18:49;;;;;;;8.60;2.65;;;;;;;7.31;100.00;100337.53;687279;28;4497;-67
2022/11/25 01:19:13;;;;;;;9.43;2.58;;;;;;;7.25;100.00;100338.38;687393;28;945;-67
2022/11/25 01:19:37;;;;;;;8.23;2.45;;;;;;;7.30;100.00;100335.81;686606;28;885;-68
2022/11/25 01:19:57;;;;;;;9.52;2.80;;;;;;;7.22;100.00;100335.78;686700;28;1926;-68
2022/11/25 01:20:17;;;;;;;9.75;2.63;;;;;;;7.26;100.00;100336.69;687252;28;1579;-67
2022/11/25 01:20:38;;;;;;;8.17;2.47;;;;;;;7.28;100.00;100332.34;684925;28;1542;-68
2022/11/25 01:21:05;;;;;;;7.88;2.45;;;;;;;7.20;100.00;100336.63;684889;28;5271;-68
2022/11/25 01:21:28;;;;;;;8.93;2.78;;;;;;;7.26;100.00;100340.13;684568;28;1119;-68
2022/11/25 01:21:49;;;;;;;9.38;2.53;;;;;;;7.35;100.00;100339.28;684238;28;4411;-66
2022/11/25 01:22:09;;;;;;;8.43;2.78;;;;;;;7.31;100.00;100340.13;684558;28;1114;-69
2022/11/25 01:22:29;;;;;;;9.03;2.80;;;;;;;7.26;100.00;100336.69;686213;28;952;-67
2022/11/25 01:22:51;;;;;;;8.10;2.50;;;;;;;7.35;100.00;100334.09;687596;28;885;-67
2022/11/25 01:23:11;;;;;;;7.03;2.50;;;;;;;7.37;100.00;100341.91;687392;28;1046;-68
2022/11/25 01:23:32;;;;;;;7.67;2.77;;;;;;;7.33;100.00;100330.63;683694;28;769;-67
2022/11/25 01:23:52;;;;;;;8.57;2.75;;;;;;;7.35;100.00;100344.47;685022;28;896;-67
2022/11/25 01:24:14;;;;;;;8.75;2.55;;;;;;;7.35;100.00;100339.28;687431;28;1065;-68
2022/11/25 01:24:35;;;;;;;7.93;2.47;;;;;;;7.32;100.00;100331.47;687664;28;964;-68
2022/11/25 01:24:55;;;;;;;8.97;2.83;;;;;;;7.31;100.00;100337.53;686919;28;4747;-67
2022/11/25 01:25:16;;;;;;;9.77;2.60;;;;;;;7.38;100.00;100339.31;687110;28;1279;-67
2022/11/25 01:25:38;;;;;;;9.02;2.50;;;;;;;7.30;100.00;100334.06;687473;28;1408;-68
2022/11/25 01:26:03;;;;;;;8.85;2.70;;;;;;;7.32;100.00;100336.69;687528;28;876;-68
2022/11/25 01:26:24;;;;;;;8.88;2.70;;;;;;;7.43;100.00;100339.31;684918;28;1139;-67
2022/11/25 01:26:45;;;;;;;8.82;2.50;;;;;;;7.35;100.00;100334.09;684563;28;897;-67
2022/11/25 01:27:05;;;;;;;9.07;2.40;;;;;;;7.31;100.00;100338.41;684818;28;872;-68
2022/11/25 01:27:26;;;;;;;10.43;2.40;;;;;;;7.29;100.00;100334.06;686846;28;1296;-68
2022/11/25 01:27:46;;;;;;;8.23;2.40;;;;;;;7.33;100.00;100333.22;684594;28;4407;-67
2022/11/25 01:28:06;;;;;;;9.13;2.60;;;;;;;7.30;100.00;100334.06;685404;28;889;-66
2022/11/25 01:28:27;;;;;;;9.93;2.70;;;;;;;7.25;100.00;100327.13;684338;28;1163;-67
2022/11/25 01:28:48;;;;;;;9.93;2.65;;;;;;;7.27;100.00;100339.28;682620;28;936;-68
2022/11/25 01:29:15;;;;;;;8.13;2.58;;;;;;;7.30;100.00;100330.63;683757;28;1470;-67
2022/11/25 01:29:35;;;;;;;8.80;2.60;;;;;;;7.26;100.00;100334.94;683648;28;1012;-68
2022/11/25 01:29:56;;;;;;;8.82;2.75;;;;;;;7.35;100.00;100336.69;683447;28;873;-68
2022/11/25 01:30:16;;;;;;;7.40;2.50;;;;;;;7.35;100.00;100334.09;685000;28;1059;-68
2022/11/25 01:30:36;;;;;;;7.65;2.35;;;;;;;7.32;100.00;100328.88;687517;28;975;-68
2022/11/25 01:31:21;;;;;;;10.57;2.53;;;;;;;7.28;100.00;100329.72;682625;28;4541;-68
2022/11/25 01:31:42;;;;;;;10.35;2.60;;;;;;;7.23;100.00;100345.31;684574;28;1067;-69
2022/11/25 01:32:02;;;;;;;11.55;2.60;;;;;;;7.26;100.00;100339.28;681802;28;1492;-68
2022/11/25 01:32:23;;;;;;;8.57;2.60;;;;;;;7.30;100.00;100341.03;678734;29;1361;-68
2022/11/25 01:32:43;;;;;;;8.67;2.67;;;;;;;7.28;100.00;100338.41;677151;29;1587;-67
2022/11/25 01:33:03;;;;;;;10.60;2.75;;;;;;;7.33;100.00;100338.41;677178;29;798;-67
2022/11/25 01:33:24;;;;;;;10.70;2.70;;;;;;;7.29;100.00;100329.72;676841;29;1113;-69
2022/11/25 01:33:46;;;;;;;9.75;2.30;;;;;;;7.40;100.00;100332.38;677300;29;1000;-68
2022/11/25 01:34:13;;;;;;;12.10;2.60;;;;;;;7.48;100.00;100335.00;679079;28;5001;-68
2022/11/25 01:34:36;;;;;;;9.00;2.70;;;;;;;7.43;100.00;100337.56;682230;28;900;-68
2022/11/25 01:34:56;;;;;;;9.10;2.90;;;;;;;7.36;100.00;100333.22;682116;29;940;-69
2022/11/25 01:35:17;;;;;;;10.18;3.03;;;;;;;7.33;100.00;100341.03;680368;28;1291;-69
2022/11/25 01:35:38;;;;;;;10.77;3.00;;;;;;;7.29;100.00;100334.94;677215;29;877;-68
2022/11/25 01:36:07;;;;;;;9.83;2.60;;;;;;;7.22;100.00;100322.78;678309;29;1824;-67
2022/11/25 01:36:28;;;;;;;7.95;2.40;;;;;;;7.24;100.00;100327.97;677063;29;2217;-69
2022/11/25 01:36:49;;;;;;;8.80;2.47;;;;;;;7.23;100.00;100327.13;678953;28;4474;-68
2022/11/25 01:37:10;;;;;;;10.90;2.95;;;;;;;7.32;100.00;100334.06;683051;28;1130;-68
2022/11/25 01:37:31;;;;;;;10.32;2.90;;;;;;;7.36;100.00;100327.16;684639;28;1008;-69
2022/11/25 01:37:51;;;;;;;8.07;2.60;;;;;;;7.35;100.00;100328.88;686524;28;1164;-69
2022/11/25 01:38:12;;;;;;;9.73;2.70;;;;;;;7.41;100.00;100326.31;687709;28;895;-68
2022/11/25 01:38:33;;;;;;;8.77;2.90;;;;;;;7.48;100.00;100329.81;687404;28;1361;-69
2022/11/25 01:38:55;;;;;;;8.02;2.65;;;;;;;7.45;100.00;100333.25;687600;28;1032;-68
2022/11/25 01:39:19;;;;;;;9.02;2.38;;;;;;;7.39;100.00;100334.97;684180;28;1008;-68
2022/11/25 01:39:39;;;;;;;8.35;2.60;;;;;;;7.43;100.00;100334.97;682300;28;2082;-68
2022/11/25 01:40:00;;;;;;;9.37;2.50;;;;;;;7.36;100.00;100330.63;681700;28;4321;-69
2022/11/25 01:40:20;;;;;;;7.80;2.60;;;;;;;7.48;100.00;100335.00;682281;28;993;-67
2022/11/25 01:40:40;;;;;;;8.20;2.70;;;;;;;7.53;100.00;100337.59;684030;28;825;-68
2022/11/25 01:41:04;;;;;;;11.60;2.70;;;;;;;7.49;100.00;100339.31;683313;28;1326;-69
2022/11/25 01:41:28;;;;;;;9.02;2.80;;;;;;;7.51;100.00;100332.41;684819;28;1185;-68
2022/11/25 01:41:49;;;;;;;10.60;2.70;;;;;;;7.48;100.00;100335.00;688545;28;889;-69
2022/11/25 01:42:09;;;;;;;11.00;2.63;;;;;;;7.53;100.00;100335.88;687431;28;1053;-69
2022/11/25 01:42:30;;;;;;;11.75;3.00;;;;;;;7.52;100.00;100335.88;687244;28;817;-68
2022/11/25 01:42:50;;;;;;;11.77;2.87;;;;;;;7.53;100.00;100337.59;685304;28;4475;-67
2022/11/25 01:43:13;;;;;;;10.77;2.75;;;;;;;7.50;100.00;100334.16;687385;28;1087;-67
2022/11/25 01:43:34;;;;;;;8.55;2.58;;;;;;;7.52;100.00;100333.25;686860;28;904;-68
2022/11/25 01:44:04;;;;;;;7.65;2.47;;;;;;;7.62;100.00;100335.91;684269;28;957;-67
2022/11/25 01:44:30;;;;;;;10.85;2.63;;;;;;;7.67;100.00;100334.19;683015;28;1159;-68
2022/11/25 01:45:21;;;;;;;9.27;2.60;;;;;;;7.60;100.00;100332.44;683657;28;944;-68
2022/11/25 01:45:41;;;;;;;10.98;2.70;;;;;;;7.57;100.00;100329.81;684813;28;909;-67
2022/11/25 01:46:24;;;;;;;9.10;2.77;;;;;;;7.50;100.00;100330.66;687113;28;4288;-68
2022/11/25 01:46:56;;;;;;;9.02;2.60;;;;;;;7.45;100.00;100333.25;685693;28;1485;-68
2022/11/25 01:47:23;;;;;;;7.93;2.83;;;;;;;7.46;100.00;100327.19;687291;28;1615;-69
2022/11/25 01:47:43;;;;;;;8.95;2.53;;;;;;;7.46;100.00;100332.41;684221;28;901;-67